sensor_id;sensor_type;location;lat;lon;timestamp;temperature;humidity
24632;DHT22;59977;48.782;9.190;2024-03-17T00:00:22;10.40;99.90
24632;DHT22;59977;48.782;9.190;2024-03-17T00:02:48;10.80;99.90
24632;DHT22;59977;48.782;9.190;2024-03-17T00:05:14;10.40;99.90
24632;DHT22;59977;48.782;9.190;2024-03-17T00:07:40;10.40;99.90
24632;DHT22;59977;48.782;9.190;2024-03-17T00:10:06;10.40;99.90
24632;DHT22;59977;48.782;9.190;2024-03-17T00:12:33;10.40;99.90
24632;DHT22;59977;48.782;9.190;2024-03-17T00:14:59;10.40;99.90
24632;DHT22;59977;48.782;9.190;2024-03-17T00:17:24;10.40;99.90
24632;DHT22;59977;48.782;9.190;2024-03-17T00:19:50;10.30;99.90
24632;DHT22;59977;48.782;9.190;2024-03-17T00:22:16;10.30;99.90
24632;DHT22;59977;48.782;9.190;2024-03-17T00:24:43;10.90;99.90
24632;DHT22;59977;48.782;9.190;2024-03-17T00:27:09;10.20;99.90
24632;DHT22;59977;48.782;9.190;2024-03-17T00:29:35;10.00;99.90
24632;DHT22;59977;48.782;9.190;2024-03-17T00:32:00;10.00;99.90
24632;DHT22;59977;48.782;9.190;2024-03-17T00:34:26;10.10;99.90
24632;DHT22;59977;48.782;9.190;2024-03-17T00:36:52;10.10;99.90
24632;DHT22;59977;48.782;9.190;2024-03-17T00:39:17;10.40;99.90
24632;DHT22;59977;48.782;9.190;2024-03-17T00:41:44;10.00;99.90
24632;DHT22;59977;48.782;9.190;2024-03-17T00:44:09;10.00;99.90
24632;DHT22;59977;48.782;9.190;2024-03-17T00:46:35;10.50;99.90
24632;DHT22;59977;48.782;9.190;2024-03-17T00:49:01;10.20;99.90
24632;DHT22;59977;48.782;9.190;2024-03-17T00:51:26;10.50;99.90
24632;DHT22;59977;48.782;9.190;2024-03-17T00:53:52;10.20;99.90
24632;DHT22;59977;48.782;9.190;2024-03-17T00:56:17;11.70;99.90
24632;DHT22;59977;48.782;9.190;2024-03-17T00:58:43;10.30;99.90
24632;DHT22;59977;48.782;9.190;2024-03-17T01:01:10;10.80;99.90
24632;DHT22;59977;48.782;9.190;2024-03-17T01:03:36;10.50;99.90
24632;DHT22;59977;48.782;9.190;2024-03-17T01:06:05;10.20;99.90
24632;DHT22;59977;48.782;9.190;2024-03-17T01:08:31;10.20;99.90
24632;DHT22;59977;48.782;9.190;2024-03-17T01:10:56;10.20;99.90
24632;DHT22;59977;48.782;9.190;2024-03-17T01:13:24;10.30;99.90
24632;DHT22;59977;48.782;9.190;2024-03-17T01:15:53;10.20;99.90
24632;DHT22;59977;48.782;9.190;2024-03-17T01:18:18;10.30;99.90
24632;DHT22;59977;48.782;9.190;2024-03-17T01:20:44;10.00;99.90
24632;DHT22;59977;48.782;9.190;2024-03-17T01:23:10;10.10;99.90
24632;DHT22;59977;48.782;9.190;2024-03-17T01:25:36;9.70;99.90
24632;DHT22;59977;48.782;9.190;2024-03-17T01:28:05;9.70;99.90
24632;DHT22;59977;48.782;9.190;2024-03-17T01:30:32;9.70;99.90
24632;DHT22;59977;48.782;9.190;2024-03-17T01:32:58;9.80;99.90
24632;DHT22;59977;48.782;9.190;2024-03-17T01:35:25;9.70;99.90
24632;DHT22;59977;48.782;9.190;2024-03-17T01:37:51;9.60;99.90
24632;DHT22;59977;48.782;9.190;2024-03-17T01:40:16;9.90;99.90
24632;DHT22;59977;48.782;9.190;2024-03-17T01:42:42;9.50;99.90
24632;DHT22;59977;48.782;9.190;2024-03-17T01:47:46;9.60;99.90
24632;DHT22;59977;48.782;9.190;2024-03-17T01:50:11;9.80;99.90
24632;DHT22;59977;48.782;9.190;2024-03-17T01:52:39;11.00;99.90
24632;DHT22;59977;48.782;9.190;2024-03-17T01:55:05;9.80;99.90
24632;DHT22;59977;48.782;9.190;2024-03-17T01:57:31;9.80;99.90
24632;DHT22;59977;48.782;9.190;2024-03-17T01:59:58;10.00;99.90
24632;DHT22;59977;48.782;9.190;2024-03-17T02:02:24;9.90;99.90
24632;DHT22;59977;48.782;9.190;2024-03-17T02:04:50;9.90;99.90
24632;DHT22;59977;48.782;9.190;2024-03-17T02:07:15;9.70;99.90
24632;DHT22;59977;48.782;9.190;2024-03-17T02:09:41;10.10;99.90
24632;DHT22;59977;48.782;9.190;2024-03-17T02:12:09;9.70;99.90
24632;DHT22;59977;48.782;9.190;2024-03-17T02:14:35;9.80;99.90
24632;DHT22;59977;48.782;9.190;2024-03-17T02:17:00;10.70;99.90
24632;DHT22;59977;48.782;9.190;2024-03-17T02:19:26;9.80;99.90
24632;DHT22;59977;48.782;9.190;2024-03-17T02:21:51;10.10;99.90
24632;DHT22;59977;48.782;9.190;2024-03-17T02:24:17;10.40;99.90
24632;DHT22;59977;48.782;9.190;2024-03-17T02:26:43;10.00;99.90
24632;DHT22;59977;48.782;9.190;2024-03-17T02:29:08;9.80;99.90
24632;DHT22;59977;48.782;9.190;2024-03-17T02:31:34;11.20;99.90
24632;DHT22;59977;48.782;9.190;2024-03-17T02:34:00;10.20;99.90
24632;DHT22;59977;48.782;9.190;2024-03-17T02:36:26;10.50;99.90
24632;DHT22;59977;48.782;9.190;2024-03-17T02:38:51;10.30;99.90
24632;DHT22;59977;48.782;9.190;2024-03-17T02:41:35;9.40;99.90
24632;DHT22;59977;48.782;9.190;2024-03-17T02:44:01;9.60;99.90
24632;DHT22;59977;48.782;9.190;2024-03-17T02:46:27;10.00;99.90
24632;DHT22;59977;48.782;9.190;2024-03-17T02:48:53;10.00;99.90
24632;DHT22;59977;48.782;9.190;2024-03-17T02:51:20;9.70;99.90
24632;DHT22;59977;48.782;9.190;2024-03-17T02:53:47;9.40;99.90
24632;DHT22;59977;48.782;9.190;2024-03-17T02:56:14;9.30;99.90
24632;DHT22;59977;48.782;9.190;2024-03-17T02:58:43;9.30;99.90
24632;DHT22;59977;48.782;9.190;2024-03-17T03:01:09;10.50;99.90
24632;DHT22;59977;48.782;9.190;2024-03-17T03:03:36;9.90;99.90
24632;DHT22;59977;48.782;9.190;2024-03-17T03:06:02;9.80;99.90
24632;DHT22;59977;48.782;9.190;2024-03-17T03:08:41;9.60;99.90
24632;DHT22;59977;48.782;9.190;2024-03-17T03:11:09;9.50;99.90
24632;DHT22;59977;48.782;9.190;2024-03-17T03:13:38;9.40;99.90
24632;DHT22;59977;48.782;9.190;2024-03-17T03:16:11;9.40;99.90
24632;DHT22;59977;48.782;9.190;2024-03-17T03:18:38;10.00;99.90
24632;DHT22;59977;48.782;9.190;2024-03-17T03:21:07;9.20;99.90
24632;DHT22;59977;48.782;9.190;2024-03-17T03:23:33;9.20;99.90
24632;DHT22;59977;48.782;9.190;2024-03-17T03:26:00;9.30;99.90
24632;DHT22;59977;48.782;9.190;2024-03-17T03:28:29;9.20;99.90
24632;DHT22;59977;48.782;9.190;2024-03-17T03:30:55;9.70;99.90
24632;DHT22;59977;48.782;9.190;2024-03-17T03:33:20;9.00;99.90
24632;DHT22;59977;48.782;9.190;2024-03-17T03:35:46;9.00;99.90
24632;DHT22;59977;48.782;9.190;2024-03-17T03:38:13;9.10;99.90
24632;DHT22;59977;48.782;9.190;2024-03-17T03:40:42;10.10;99.90
24632;DHT22;59977;48.782;9.190;2024-03-17T03:43:08;9.20;99.90
24632;DHT22;59977;48.782;9.190;2024-03-17T03:45:34;9.20;99.90
24632;DHT22;59977;48.782;9.190;2024-03-17T03:48:01;9.10;99.90
24632;DHT22;59977;48.782;9.190;2024-03-17T03:50:28;10.10;99.90
24632;DHT22;59977;48.782;9.190;2024-03-17T03:52:53;9.20;99.90
24632;DHT22;59977;48.782;9.190;2024-03-17T03:55:21;10.20;99.90
24632;DHT22;59977;48.782;9.190;2024-03-17T03:57:47;9.10;99.90
24632;DHT22;59977;48.782;9.190;2024-03-17T04:00:18;9.00;99.90
24632;DHT22;59977;48.782;9.190;2024-03-17T04:02:52;9.10;99.90
24632;DHT22;59977;48.782;9.190;2024-03-17T04:05:19;8.70;99.90
24632;DHT22;59977;48.782;9.190;2024-03-17T04:07:46;8.60;99.90
24632;DHT22;59977;48.782;9.190;2024-03-17T04:10:12;8.60;99.90
24632;DHT22;59977;48.782;9.190;2024-03-17T04:12:38;8.70;99.90
24632;DHT22;59977;48.782;9.190;2024-03-17T04:15:04;8.70;99.90
24632;DHT22;59977;48.782;9.190;2024-03-17T04:17:32;8.80;99.90
24632;DHT22;59977;48.782;9.190;2024-03-17T04:19:58;8.70;99.90
24632;DHT22;59977;48.782;9.190;2024-03-17T04:22:24;9.30;99.90
24632;DHT22;59977;48.782;9.190;2024-03-17T04:24:51;9.20;99.90
24632;DHT22;59977;48.782;9.190;2024-03-17T04:27:21;9.50;99.90
24632;DHT22;59977;48.782;9.190;2024-03-17T04:29:49;8.70;99.90
24632;DHT22;59977;48.782;9.190;2024-03-17T04:32:15;9.00;99.90
24632;DHT22;59977;48.782;9.190;2024-03-17T04:34:40;8.80;99.90
24632;DHT22;59977;48.782;9.190;2024-03-17T04:37:06;8.80;99.90
24632;DHT22;59977;48.782;9.190;2024-03-17T04:39:32;8.80;99.90
24632;DHT22;59977;48.782;9.190;2024-03-17T04:41:57;9.40;99.90
24632;DHT22;59977;48.782;9.190;2024-03-17T04:44:23;9.00;99.90
24632;DHT22;59977;48.782;9.190;2024-03-17T04:46:48;8.70;99.90
24632;DHT22;59977;48.782;9.190;2024-03-17T04:49:14;9.60;99.90
24632;DHT22;59977;48.782;9.190;2024-03-17T04:51:40;8.70;99.90
24632;DHT22;59977;48.782;9.190;2024-03-17T04:54:05;8.80;99.90
24632;DHT22;59977;48.782;9.190;2024-03-17T04:56:33;8.50;99.90
24632;DHT22;59977;48.782;9.190;2024-03-17T04:58:59;8.70;99.90
24632;DHT22;59977;48.782;9.190;2024-03-17T05:01:25;9.10;99.90
24632;DHT22;59977;48.782;9.190;2024-03-17T05:03:54;8.40;99.90
24632;DHT22;59977;48.782;9.190;2024-03-17T05:06:20;8.30;99.90
24632;DHT22;59977;48.782;9.190;2024-03-17T05:08:45;8.40;99.90
24632;DHT22;59977;48.782;9.190;2024-03-17T05:11:11;8.50;99.90
24632;DHT22;59977;48.782;9.190;2024-03-17T05:13:37;8.50;99.90
24632;DHT22;59977;48.782;9.190;2024-03-17T05:16:05;8.60;99.90
24632;DHT22;59977;48.782;9.190;2024-03-17T05:18:32;8.50;99.90
24632;DHT22;59977;48.782;9.190;2024-03-17T05:21:05;8.50;99.90
24632;DHT22;59977;48.782;9.190;2024-03-17T05:23:33;8.40;99.90
24632;DHT22;59977;48.782;9.190;2024-03-17T05:25:59;9.10;99.90
24632;DHT22;59977;48.782;9.190;2024-03-17T05:28:26;8.30;99.90
24632;DHT22;59977;48.782;9.190;2024-03-17T05:30:52;8.20;99.90
24632;DHT22;59977;48.782;9.190;2024-03-17T05:33:21;8.20;99.90
24632;DHT22;59977;48.782;9.190;2024-03-17T05:35:57;8.20;99.90
24632;DHT22;59977;48.782;9.190;2024-03-17T05:38:24;8.30;99.90
24632;DHT22;59977;48.782;9.190;2024-03-17T05:40:54;8.80;99.90
24632;DHT22;59977;48.782;9.190;2024-03-17T05:43:21;8.40;99.90
24632;DHT22;59977;48.782;9.190;2024-03-17T05:45:47;8.30;99.90
24632;DHT22;59977;48.782;9.190;2024-03-17T05:48:13;8.30;99.90
24632;DHT22;59977;48.782;9.190;2024-03-17T05:50:39;8.40;99.90
24632;DHT22;59977;48.782;9.190;2024-03-17T05:53:05;8.40;99.90
24632;DHT22;59977;48.782;9.190;2024-03-17T05:55:30;8.30;99.90
24632;DHT22;59977;48.782;9.190;2024-03-17T05:57:56;8.30;99.90
24632;DHT22;59977;48.782;9.190;2024-03-17T06:00:22;9.20;99.90
24632;DHT22;59977;48.782;9.190;2024-03-17T06:02:47;8.40;99.90
24632;DHT22;59977;48.782;9.190;2024-03-17T06:05:13;8.60;99.90
24632;DHT22;59977;48.782;9.190;2024-03-17T06:07:40;7.90;99.90
24632;DHT22;59977;48.782;9.190;2024-03-17T06:10:06;8.00;99.90
24632;DHT22;59977;48.782;9.190;2024-03-17T06:12:32;7.90;99.90
24632;DHT22;59977;48.782;9.190;2024-03-17T06:14:57;7.90;99.90
24632;DHT22;59977;48.782;9.190;2024-03-17T06:17:23;7.80;99.90
24632;DHT22;59977;48.782;9.190;2024-03-17T06:19:49;8.20;99.90
24632;DHT22;59977;48.782;9.190;2024-03-17T06:22:14;7.70;99.90
24632;DHT22;59977;48.782;9.190;2024-03-17T06:24:40;7.70;99.90
24632;DHT22;59977;48.782;9.190;2024-03-17T06:27:06;8.90;99.90
24632;DHT22;59977;48.782;9.190;2024-03-17T06:29:35;7.80;99.90
24632;DHT22;59977;48.782;9.190;2024-03-17T06:32:00;8.30;99.90
24632;DHT22;59977;48.782;9.190;2024-03-17T06:34:26;8.40;99.90
24632;DHT22;59977;48.782;9.190;2024-03-17T06:36:52;8.80;99.90
24632;DHT22;59977;48.782;9.190;2024-03-17T06:39:17;8.60;99.90
24632;DHT22;59977;48.782;9.190;2024-03-17T06:41:45;9.20;99.90
24632;DHT22;59977;48.782;9.190;2024-03-17T06:44:11;8.00;99.90
24632;DHT22;59977;48.782;9.190;2024-03-17T06:46:37;8.00;99.90
24632;DHT22;59977;48.782;9.190;2024-03-17T06:49:03;8.00;99.90
24632;DHT22;59977;48.782;9.190;2024-03-17T06:51:28;8.20;99.90
24632;DHT22;59977;48.782;9.190;2024-03-17T06:53:54;8.40;99.90
24632;DHT22;59977;48.782;9.190;2024-03-17T06:56:19;8.60;99.90
24632;DHT22;59977;48.782;9.190;2024-03-17T06:58:45;9.80;99.90
24632;DHT22;59977;48.782;9.190;2024-03-17T07:01:10;9.50;99.90
24632;DHT22;59977;48.782;9.190;2024-03-17T07:03:37;9.30;99.90
24632;DHT22;59977;48.782;9.190;2024-03-17T07:06:03;9.10;99.90
24632;DHT22;59977;48.782;9.190;2024-03-17T07:08:30;9.30;99.90
24632;DHT22;59977;48.782;9.190;2024-03-17T07:11:07;9.60;99.90
24632;DHT22;59977;48.782;9.190;2024-03-17T07:13:34;9.70;99.90
24632;DHT22;59977;48.782;9.190;2024-03-17T07:16:01;10.30;99.90
24632;DHT22;59977;48.782;9.190;2024-03-17T07:18:28;9.80;99.90
24632;DHT22;59977;48.782;9.190;2024-03-17T07:20:56;9.90;99.90
24632;DHT22;59977;48.782;9.190;2024-03-17T07:23:22;9.90;99.90
24632;DHT22;59977;48.782;9.190;2024-03-17T07:25:52;9.90;99.90
24632;DHT22;59977;48.782;9.190;2024-03-17T07:28:19;9.80;99.90
24632;DHT22;59977;48.782;9.190;2024-03-17T07:30:55;9.90;99.90
24632;DHT22;59977;48.782;9.190;2024-03-17T07:33:22;10.30;99.90
24632;DHT22;59977;48.782;9.190;2024-03-17T07:35:52;9.90;99.90
24632;DHT22;59977;48.782;9.190;2024-03-17T07:38:18;10.00;99.90
24632;DHT22;59977;48.782;9.190;2024-03-17T07:40:45;10.10;99.90
24632;DHT22;59977;48.782;9.190;2024-03-17T07:43:10;10.00;99.90
24632;DHT22;59977;48.782;9.190;2024-03-17T07:45:37;10.10;99.90
24632;DHT22;59977;48.782;9.190;2024-03-17T07:48:03;10.70;99.90
24632;DHT22;59977;48.782;9.190;2024-03-17T07:50:29;10.20;99.90
24632;DHT22;59977;48.782;9.190;2024-03-17T07:52:54;10.30;99.90
24632;DHT22;59977;48.782;9.190;2024-03-17T07:55:20;10.50;99.90
24632;DHT22;59977;48.782;9.190;2024-03-17T07:57:45;10.80;99.90
24632;DHT22;59977;48.782;9.190;2024-03-17T08:00:11;10.10;99.90
24632;DHT22;59977;48.782;9.190;2024-03-17T08:02:46;10.20;99.90
24632;DHT22;59977;48.782;9.190;2024-03-17T08:05:12;10.20;99.90
24632;DHT22;59977;48.782;9.190;2024-03-17T08:07:37;10.20;99.90
24632;DHT22;59977;48.782;9.190;2024-03-17T08:10:03;10.10;99.90
24632;DHT22;59977;48.782;9.190;2024-03-17T08:12:29;10.30;99.90
24632;DHT22;59977;48.782;9.190;2024-03-17T08:14:55;11.00;99.90
24632;DHT22;59977;48.782;9.190;2024-03-17T08:17:21;10.50;99.90
24632;DHT22;59977;48.782;9.190;2024-03-17T08:19:47;11.00;99.90
24632;DHT22;59977;48.782;9.190;2024-03-17T08:22:14;11.10;99.90
24632;DHT22;59977;48.782;9.190;2024-03-17T08:24:40;11.60;99.90
24632;DHT22;59977;48.782;9.190;2024-03-17T08:27:06;11.00;99.90
24632;DHT22;59977;48.782;9.190;2024-03-17T08:29:34;10.80;99.90
24632;DHT22;59977;48.782;9.190;2024-03-17T08:32:00;10.90;99.90
24632;DHT22;59977;48.782;9.190;2024-03-17T08:34:25;11.00;99.90
24632;DHT22;59977;48.782;9.190;2024-03-17T08:36:51;11.10;99.90
24632;DHT22;59977;48.782;9.190;2024-03-17T08:39:16;11.10;99.90
24632;DHT22;59977;48.782;9.190;2024-03-17T08:41:42;11.10;99.90
24632;DHT22;59977;48.782;9.190;2024-03-17T08:44:09;11.20;99.90
24632;DHT22;59977;48.782;9.190;2024-03-17T08:46:35;11.40;99.90
24632;DHT22;59977;48.782;9.190;2024-03-17T08:49:01;11.60;99.90
24632;DHT22;59977;48.782;9.190;2024-03-17T08:51:26;11.70;99.90
24632;DHT22;59977;48.782;9.190;2024-03-17T08:53:53;11.70;99.90
24632;DHT22;59977;48.782;9.190;2024-03-17T08:56:18;11.60;99.90
24632;DHT22;59977;48.782;9.190;2024-03-17T08:58:46;11.70;99.90
24632;DHT22;59977;48.782;9.190;2024-03-17T09:01:13;11.70;99.90
24632;DHT22;59977;48.782;9.190;2024-03-17T09:03:39;11.80;99.90
24632;DHT22;59977;48.782;9.190;2024-03-17T09:06:14;11.80;99.90
24632;DHT22;59977;48.782;9.190;2024-03-17T09:08:42;11.80;99.90
24632;DHT22;59977;48.782;9.190;2024-03-17T09:11:14;11.80;99.90
24632;DHT22;59977;48.782;9.190;2024-03-17T09:13:40;11.80;99.90
24632;DHT22;59977;48.782;9.190;2024-03-17T09:16:06;11.80;99.90
24632;DHT22;59977;48.782;9.190;2024-03-17T09:18:36;12.00;99.90
24632;DHT22;59977;48.782;9.190;2024-03-17T09:21:07;12.00;99.90
24632;DHT22;59977;48.782;9.190;2024-03-17T09:23:34;12.20;99.90
24632;DHT22;59977;48.782;9.190;2024-03-17T09:26:00;12.30;99.90
24632;DHT22;59977;48.782;9.190;2024-03-17T09:28:29;12.50;99.90
24632;DHT22;59977;48.782;9.190;2024-03-17T09:30:56;12.50;99.90
24632;DHT22;59977;48.782;9.190;2024-03-17T09:33:23;12.40;99.90
24632;DHT22;59977;48.782;9.190;2024-03-17T09:36:01;12.50;99.90
24632;DHT22;59977;48.782;9.190;2024-03-17T09:38:28;12.60;99.90
24632;DHT22;59977;48.782;9.190;2024-03-17T09:40:54;12.70;99.90
24632;DHT22;59977;48.782;9.190;2024-03-17T09:43:24;12.70;99.90
24632;DHT22;59977;48.782;9.190;2024-03-17T09:45:51;12.90;99.90
24632;DHT22;59977;48.782;9.190;2024-03-17T09:48:20;12.90;99.90
24632;DHT22;59977;48.782;9.190;2024-03-17T09:51:04;13.60;99.90
24632;DHT22;59977;48.782;9.190;2024-03-17T09:53:31;13.30;99.90
24632;DHT22;59977;48.782;9.190;2024-03-17T09:55:59;13.40;99.90
24632;DHT22;59977;48.782;9.190;2024-03-17T09:58:26;13.40;99.90
24632;DHT22;59977;48.782;9.190;2024-03-17T10:00:54;13.30;99.90
24632;DHT22;59977;48.782;9.190;2024-03-17T10:03:39;13.30;99.90
24632;DHT22;59977;48.782;9.190;2024-03-17T10:06:06;13.30;99.90
24632;DHT22;59977;48.782;9.190;2024-03-17T10:08:31;13.30;99.90
24632;DHT22;59977;48.782;9.190;2024-03-17T10:10:59;13.60;99.90
24632;DHT22;59977;48.782;9.190;2024-03-17T10:13:25;13.40;99.90
24632;DHT22;59977;48.782;9.190;2024-03-17T10:15:51;13.50;99.90
24632;DHT22;59977;48.782;9.190;2024-03-17T10:18:23;13.70;99.90
24632;DHT22;59977;48.782;9.190;2024-03-17T10:20:51;13.90;99.90
24632;DHT22;59977;48.782;9.190;2024-03-17T10:23:22;13.90;99.90
24632;DHT22;59977;48.782;9.190;2024-03-17T10:25:47;14.00;99.90
24632;DHT22;59977;48.782;9.190;2024-03-17T10:28:17;14.10;99.90
24632;DHT22;59977;48.782;9.190;2024-03-17T10:30:57;13.90;99.90
24632;DHT22;59977;48.782;9.190;2024-03-17T10:33:23;13.90;99.90
24632;DHT22;59977;48.782;9.190;2024-03-17T10:35:50;14.00;99.90
24632;DHT22;59977;48.782;9.190;2024-03-17T10:38:22;14.20;99.90
24632;DHT22;59977;48.782;9.190;2024-03-17T10:40:48;14.30;99.90
24632;DHT22;59977;48.782;9.190;2024-03-17T10:43:14;14.20;99.90
24632;DHT22;59977;48.782;9.190;2024-03-17T10:45:40;14.40;99.90
24632;DHT22;59977;48.782;9.190;2024-03-17T10:48:08;14.50;99.90
24632;DHT22;59977;48.782;9.190;2024-03-17T10:50:38;14.60;99.90
24632;DHT22;59977;48.782;9.190;2024-03-17T10:53:07;14.50;99.90
24632;DHT22;59977;48.782;9.190;2024-03-17T10:55:45;14.40;99.90
24632;DHT22;59977;48.782;9.190;2024-03-17T10:58:35;14.40;99.90
24632;DHT22;59977;48.782;9.190;2024-03-17T11:01:13;14.40;99.90
24632;DHT22;59977;48.782;9.190;2024-03-17T11:03:39;14.70;99.90
24632;DHT22;59977;48.782;9.190;2024-03-17T11:06:06;14.70;99.90
24632;DHT22;59977;48.782;9.190;2024-03-17T11:08:34;14.60;99.90
24632;DHT22;59977;48.782;9.190;2024-03-17T11:11:00;14.60;99.90
24632;DHT22;59977;48.782;9.190;2024-03-17T11:13:28;14.70;99.90
24632;DHT22;59977;48.782;9.190;2024-03-17T11:15:58;14.80;99.90
24632;DHT22;59977;48.782;9.190;2024-03-17T11:18:28;14.90;99.90
24632;DHT22;59977;48.782;9.190;2024-03-17T11:21:18;14.90;99.90
24632;DHT22;59977;48.782;9.190;2024-03-17T11:24:04;15.00;99.90
24632;DHT22;59977;48.782;9.190;2024-03-17T11:26:34;15.00;99.90
24632;DHT22;59977;48.782;9.190;2024-03-17T11:29:03;15.00;99.90
24632;DHT22;59977;48.782;9.190;2024-03-17T11:31:42;14.90;99.90
24632;DHT22;59977;48.782;9.190;2024-03-17T11:34:30;14.90;99.90
24632;DHT22;59977;48.782;9.190;2024-03-17T11:36:57;15.00;99.90
24632;DHT22;59977;48.782;9.190;2024-03-17T11:39:50;15.10;99.90
24632;DHT22;59977;48.782;9.190;2024-03-17T11:42:19;15.20;99.90
24632;DHT22;59977;48.782;9.190;2024-03-17T11:45:03;15.00;99.90
24632;DHT22;59977;48.782;9.190;2024-03-17T11:47:36;15.00;99.90
24632;DHT22;59977;48.782;9.190;2024-03-17T11:50:07;15.00;99.90
24632;DHT22;59977;48.782;9.190;2024-03-17T11:52:35;14.90;99.90
24632;DHT22;59977;48.782;9.190;2024-03-17T11:55:01;15.00;99.90
24632;DHT22;59977;48.782;9.190;2024-03-17T11:57:27;15.10;99.90
24632;DHT22;59977;48.782;9.190;2024-03-17T11:59:54;15.10;99.90
24632;DHT22;59977;48.782;9.190;2024-03-17T12:02:24;14.90;99.90
24632;DHT22;59977;48.782;9.190;2024-03-17T12:04:53;14.90;99.90
24632;DHT22;59977;48.782;9.190;2024-03-17T12:07:20;14.90;99.90
24632;DHT22;59977;48.782;9.190;2024-03-17T12:09:47;14.90;99.90
24632;DHT22;59977;48.782;9.190;2024-03-17T12:12:20;14.80;99.90
24632;DHT22;59977;48.782;9.190;2024-03-17T12:14:47;14.70;99.90
24632;DHT22;59977;48.782;9.190;2024-03-17T12:17:20;14.70;99.90
24632;DHT22;59977;48.782;9.190;2024-03-17T12:19:46;14.80;99.90
24632;DHT22;59977;48.782;9.190;2024-03-17T12:22:18;14.80;99.90
24632;DHT22;59977;48.782;9.190;2024-03-17T12:24:48;15.00;99.90
24632;DHT22;59977;48.782;9.190;2024-03-17T12:27:18;15.10;99.90
24632;DHT22;59977;48.782;9.190;2024-03-17T12:29:45;15.30;99.90
24632;DHT22;59977;48.782;9.190;2024-03-17T12:34:39;15.40;99.90
24632;DHT22;59977;48.782;9.190;2024-03-17T12:37:05;15.40;99.90
24632;DHT22;59977;48.782;9.190;2024-03-17T12:39:32;15.70;99.90
24632;DHT22;59977;48.782;9.190;2024-03-17T12:44:34;15.70;99.90
24632;DHT22;59977;48.782;9.190;2024-03-17T12:47:04;15.70;99.90
24632;DHT22;59977;48.782;9.190;2024-03-17T12:49:32;15.60;99.90
24632;DHT22;59977;48.782;9.190;2024-03-17T12:52:01;15.50;99.90
24632;DHT22;59977;48.782;9.190;2024-03-17T12:54:29;15.60;99.90
24632;DHT22;59977;48.782;9.190;2024-03-17T12:57:05;15.40;99.90
24632;DHT22;59977;48.782;9.190;2024-03-17T12:59:50;15.20;99.90
24632;DHT22;59977;48.782;9.190;2024-03-17T13:02:34;15.10;99.90
24632;DHT22;59977;48.782;9.190;2024-03-17T13:05:10;15.10;99.90
24632;DHT22;59977;48.782;9.190;2024-03-17T13:07:36;15.10;99.90
24632;DHT22;59977;48.782;9.190;2024-03-17T13:10:01;15.20;99.90
24632;DHT22;59977;48.782;9.190;2024-03-17T13:12:28;15.30;99.90
24632;DHT22;59977;48.782;9.190;2024-03-17T13:14:58;15.30;99.90
24632;DHT22;59977;48.782;9.190;2024-03-17T13:17:24;15.30;99.90
24632;DHT22;59977;48.782;9.190;2024-03-17T13:19:49;15.30;99.90
24632;DHT22;59977;48.782;9.190;2024-03-17T13:22:15;15.40;99.90
24632;DHT22;59977;48.782;9.190;2024-03-17T13:24:40;15.60;99.90
24632;DHT22;59977;48.782;9.190;2024-03-17T13:27:07;15.70;99.90
24632;DHT22;59977;48.782;9.190;2024-03-17T13:29:34;15.80;99.90
24632;DHT22;59977;48.782;9.190;2024-03-17T13:32:02;15.70;99.90
24632;DHT22;59977;48.782;9.190;2024-03-17T13:34:28;15.90;99.90
24632;DHT22;59977;48.782;9.190;2024-03-17T13:36:54;15.90;99.90
24632;DHT22;59977;48.782;9.190;2024-03-17T13:39:19;15.90;99.90
24632;DHT22;59977;48.782;9.190;2024-03-17T13:41:47;16.50;99.90
24632;DHT22;59977;48.782;9.190;2024-03-17T13:44:15;16.00;99.90
24632;DHT22;59977;48.782;9.190;2024-03-17T13:46:40;16.10;99.90
24632;DHT22;59977;48.782;9.190;2024-03-17T13:49:10;16.20;99.90
24632;DHT22;59977;48.782;9.190;2024-03-17T13:51:36;16.30;99.90
24632;DHT22;59977;48.782;9.190;2024-03-17T13:54:01;16.40;99.90
24632;DHT22;59977;48.782;9.190;2024-03-17T13:56:28;16.50;99.90
24632;DHT22;59977;48.782;9.190;2024-03-17T13:58:54;16.60;99.90
24632;DHT22;59977;48.782;9.190;2024-03-17T14:01:22;16.70;99.90
24632;DHT22;59977;48.782;9.190;2024-03-17T14:03:48;16.60;99.90
24632;DHT22;59977;48.782;9.190;2024-03-17T14:06:14;16.40;99.90
24632;DHT22;59977;48.782;9.190;2024-03-17T14:08:41;16.30;99.90
24632;DHT22;59977;48.782;9.190;2024-03-17T14:11:07;16.60;99.90
24632;DHT22;59977;48.782;9.190;2024-03-17T14:13:33;16.20;99.90
24632;DHT22;59977;48.782;9.190;2024-03-17T14:15:58;16.20;99.90
24632;DHT22;59977;48.782;9.190;2024-03-17T14:18:24;16.40;99.90
24632;DHT22;59977;48.782;9.190;2024-03-17T14:20:50;16.50;99.90
24632;DHT22;59977;48.782;9.190;2024-03-17T14:23:17;16.50;99.90
24632;DHT22;59977;48.782;9.190;2024-03-17T14:25:43;16.40;99.90
24632;DHT22;59977;48.782;9.190;2024-03-17T14:28:08;16.30;99.90
24632;DHT22;59977;48.782;9.190;2024-03-17T14:30:34;16.50;99.90
24632;DHT22;59977;48.782;9.190;2024-03-17T14:33:00;16.70;99.90
24632;DHT22;59977;48.782;9.190;2024-03-17T14:35:25;16.90;99.90
24632;DHT22;59977;48.782;9.190;2024-03-17T14:37:55;17.00;99.90
24632;DHT22;59977;48.782;9.190;2024-03-17T14:40:23;17.00;99.90
24632;DHT22;59977;48.782;9.190;2024-03-17T14:42:50;16.90;99.90
24632;DHT22;59977;48.782;9.190;2024-03-17T14:45:17;16.90;99.90
24632;DHT22;59977;48.782;9.190;2024-03-17T14:47:43;16.90;99.80
24632;DHT22;59977;48.782;9.190;2024-03-17T14:50:10;17.00;99.90
24632;DHT22;59977;48.782;9.190;2024-03-17T14:52:37;17.30;99.70
24632;DHT22;59977;48.782;9.190;2024-03-17T14:55:03;17.50;98.80
24632;DHT22;59977;48.782;9.190;2024-03-17T14:57:31;17.60;98.20
24632;DHT22;59977;48.782;9.190;2024-03-17T14:59:58;17.40;98.50
24632;DHT22;59977;48.782;9.190;2024-03-17T15:02:25;17.30;98.80
24632;DHT22;59977;48.782;9.190;2024-03-17T15:04:52;17.20;98.80
24632;DHT22;59977;48.782;9.190;2024-03-17T15:07:18;17.30;98.70
24632;DHT22;59977;48.782;9.190;2024-03-17T15:09:43;17.90;98.40
24632;DHT22;59977;48.782;9.190;2024-03-17T15:12:09;18.40;97.70
24632;DHT22;59977;48.782;9.190;2024-03-17T15:14:35;19.00;96.80
24632;DHT22;59977;48.782;9.190;2024-03-17T15:17:03;19.20;95.70
24632;DHT22;59977;48.782;9.190;2024-03-17T15:19:29;18.60;95.80
24632;DHT22;59977;48.782;9.190;2024-03-17T15:21:54;18.10;96.50
24632;DHT22;59977;48.782;9.190;2024-03-17T15:24:20;17.80;97.10
24632;DHT22;59977;48.782;9.190;2024-03-17T15:26:45;17.70;97.30
24632;DHT22;59977;48.782;9.190;2024-03-17T15:29:11;17.40;97.60
24632;DHT22;59977;48.782;9.190;2024-03-17T15:31:38;16.90;98.00
24632;DHT22;59977;48.782;9.190;2024-03-17T15:34:03;16.60;98.40
24632;DHT22;59977;48.782;9.190;2024-03-17T15:36:29;16.40;98.90
24632;DHT22;59977;48.782;9.190;2024-03-17T15:38:55;16.30;99.20
24632;DHT22;59977;48.782;9.190;2024-03-17T15:41:21;16.30;98.90
24632;DHT22;59977;48.782;9.190;2024-03-17T15:43:47;16.40;99.30